Latest Weather Observations for Century Mine

IDQ60801

Issued at 7:05 pm EST Thursday 27 November 2014 (issued every 30 minutes, with the page automatically refreshed every 10 minutes)

About weather observations | Map of weather stations | Latest weather observations for QLD | Other Formats
Station Details ID: 029167 Name: CENTURY MINE Lat: -18.76 Lon: 138.71 Height: 126.8 m
Data from the previous 72 hours. | See also: Recent months at Century Mine
Date/Time
EST
Temp
°C
App
Temp
°C
Dew
Point
Rel
Hum
%
Delta-T
°C
Wind Press
QNH
hPa
Press
MSL
hPa
Rain
since 9 am
mm
Dir
 
Spd
km/h
Gust
km/h
Spd
kts
Gust
kts
27/07:00pm 26.0 26.6 19.4 67 4.3 NNE 15 28 8 15 1009.9 1009.0 6.0
27/06:30pm 26.1 25.8 19.5 67 4.3 NE 20 35 11 19 1009.5 1008.6 6.0
27/06:00pm 24.9 22.6 20.6 77 2.8 ENE 33 54 18 29 1008.8 1007.9 6.0
27/05:30pm 29.0 26.6 19.0 54 6.5 ENE 30 54 16 29 1008.3 1007.4 0.0
27/05:24pm 33.1 30.0 16.5 37 10.5 ENE 28 48 15 26 1007.8 1006.9 0.0
27/05:00pm 38.5 38.6 15.6 26 14.6 WNW 9 15 5 8 1006.5 1005.5 0.0
27/04:30pm 36.6 36.9 15.1 27 13.5 NW 7 11 4 6 1006.6 1005.6 0.0
27/04:00pm 36.3 36.6 14.9 28 13.5 NW 7 13 4 7 1006.5 1005.5 0.0
27/03:30pm 37.2 37.2 15.1 27 13.9 N 9 20 5 11 1006.7 1005.7 0.0
27/03:00pm 38.3 38.6 16.0 27 14.3 NW 9 17 5 9 1007.0 1006.0 0.0
27/02:30pm 38.0 38.0 16.3 27 14.0 NNW 11 22 6 12 1007.5 1006.5 0.0
27/02:00pm 37.9 38.1 16.8 29 13.7 NNE 11 20 6 11 1008.0 1007.1 0.0
27/01:30pm 37.7 38.0 17.1 29 13.4 NNE 11 22 6 12 1008.3 1007.4 0.0
27/01:00pm 36.6 35.4 15.1 27 13.6 NE 15 24 8 13 1008.8 1007.9 0.0
27/12:30pm 37.1 36.5 16.6 29 13.2 NNE 15 22 8 12 1009.2 1008.3 0.0
27/12:00pm 35.5 35.1 15.3 30 12.7 NNE 11 22 6 12 1009.5 1008.6 0.0
27/11:30am 35.4 34.6 16.2 32 12.2 N 15 24 8 13 1009.9 1009.0 0.0
27/11:00am 35.7 36.4 17.9 35 11.6 NE 11 20 6 11 1010.1 1009.2 0.0
27/10:30am 32.9 34.1 18.3 42 9.5 E 9 13 5 7 1010.4 1009.5 0.0
27/10:00am 33.0 34.8 18.7 42 9.4 SE 7 13 4 7 1010.7 1009.8 0.0
27/09:30am 31.9 33.9 19.2 47 8.3 S 7 13 4 7 1010.7 1009.8 0.0
27/09:00am 31.1 33.4 19.4 49 7.7 S 6 11 3 6 1010.7 1009.8 0.0
27/08:30am 30.4 32.3 19.7 52 7.0 SSW 9 13 5 7 1010.5 1009.6 0.0
27/08:00am 28.9 31.5 20.1 59 5.8 SSW 6 9 3 5 1010.3 1009.4 0.0
27/07:30am 27.7 30.7 20.8 66 4.6 SW 6 11 3 6 1010.3 1009.4 0.0
27/07:00am 26.5 30.9 21.3 73 3.5 CALM 0 0 0 0 1010.1 1009.2 0.0
27/06:30am 25.5 28.2 20.7 75 3.2 SSW 7 9 4 5 1009.8 1008.9 0.0
27/06:00am 25.0 29.1 21.5 81 2.3 SE 2 7 1 4 1009.3 1008.4 0.0
27/05:30am 25.0 29.6 21.7 82 2.2 CALM 0 6 0 3 1009.0 1008.1 0.0
27/05:00am 25.0 28.2 21.3 80 2.5 S 6 7 3 4 1008.6 1007.7 0.0
27/04:30am 25.0 29.2 20.9 78 2.7 CALM 0 6 0 3 1008.3 1007.4 0.0
27/04:00am 25.4 29.7 21.1 77 2.9 CALM 0 0 0 0 1008.2 1007.3 0.0
27/03:30am 25.6 29.9 21.1 76 3.0 CALM 0 0 0 0 1008.3 1007.4 0.0
27/03:00am 25.3 28.5 21.2 78 2.7 SSW 6 7 3 4 1008.3 1007.4 0.0
27/02:30am 25.3 29.5 21.0 77 2.8 CALM 0 0 0 0 1008.7 1007.8 0.0
27/02:00am 25.5 29.0 20.3 73 3.4 WSW 2 7 1 4 1008.7 1007.8 0.0
27/01:30am 25.5 29.3 20.1 72 3.5 CALM 0 6 0 3 1009.1 1008.2 0.0
27/01:00am 25.8 28.1 19.4 67 4.1 S 6 7 3 4 1009.1 1008.2 0.0
27/12:30am 26.1 28.1 18.8 64 4.7 SSW 6 11 3 6 1009.2 1008.3 0.0
27/12:00am 26.1 28.0 19.0 65 4.6 SSE 7 9 4 5 1009.3 1008.4 0.0
 
Date/Time
EST
Temp
°C
App
Temp
°C
Dew
Point
Rel
Hum
%
Delta-T
°C
Wind Press
QNH
hPa
Press
MSL
hPa
Rain
since 9 am
mm
Dir
 
Spd
km/h
Gust
km/h
Spd
kts
Gust
kts
26/11:30pm 26.7 29.5 18.8 62 5.1 SSW 2 6 1 3 1009.2 1008.3 0.0
26/11:00pm 27.2 28.1 18.5 59 5.6 SW 11 17 6 9 1009.3 1008.4 0.0
26/10:30pm 26.9 28.2 19.3 63 4.9 WSW 11 17 6 9 1009.3 1008.4 0.0
26/10:00pm 27.4 28.5 18.1 57 5.9 WSW 9 13 5 7 1009.1 1008.2 0.0
26/09:30pm 26.5 27.8 19.4 65 4.6 WSW 11 15 6 8 1009.6 1008.7 0.0
26/09:00pm 26.5 27.9 19.6 66 4.5 WSW 11 17 6 9 1010.0 1009.1 0.0
26/08:30pm 26.8 28.9 19.4 64 4.8 WSW 7 11 4 6 1010.3 1009.4 0.0
26/08:00pm 26.8 28.9 19.4 64 4.8 S 7 13 4 7 1010.9 1010.0 0.0
26/07:30pm 26.2 25.9 19.6 67 4.3 SSW 20 33 11 18 1010.3 1009.4 0.0
26/07:00pm 26.9 25.2 18.2 59 5.6 E 24 37 13 20 1009.1 1008.2 0.0
26/06:37pm 27.2 24.9 19.3 62 5.1 E 30 48 16 26 1008.5 1007.6 0.0
26/06:30pm 27.4 24.5 19.2 61 5.3 E 33 48 18 26 1008.5 1007.6 0.0
26/06:01pm 31.0 27.6 15.8 40 9.5 E 28 54 15 29 1008.8 1007.9 0.0
26/06:00pm 32.8 30.6 17.0 38 10.1 E 24 48 13 26 1009.0 1008.1 0.0
26/05:30pm 32.8 31.6 16.2 37 10.5 NNE 17 24 9 13 1006.7 1005.7 0.0
26/05:00pm 31.9 30.7 17.0 41 9.5 NNE 19 33 10 18 1006.5 1005.5 0.0
26/04:30pm 32.7 32.6 18.8 43 9.1 NNE 17 30 9 16 1006.3 1005.3 0.0
26/04:12pm 36.5 32.9 17.1 31 12.6 ENE 32 43 17 23 1006.2 1005.2 0.0
26/04:00pm 37.7 38.0 16.1 28 13.9 ESE 9 15 5 8 1005.8 1004.8 0.0
26/03:30pm 37.5 37.6 16.4 28 13.6 SE 11 19 6 10 1006.0 1005.0 0.0
26/03:00pm 37.1 37.8 17.1 30 13.0 ESE 9 19 5 10 1006.7 1005.7 0.0
26/02:30pm 36.6 36.4 16.7 30 12.8 SSE 13 20 7 11 1007.2 1006.2 0.0
26/02:00pm 36.7 36.5 16.8 30 12.9 ENE 13 26 7 14 1007.7 1006.8 0.0
26/01:30pm 36.7 37.7 17.8 32 12.4 NNE 9 17 5 9 1007.9 1007.0 0.0
26/01:00pm 36.3 36.2 17.0 32 12.5 ESE 13 20 7 11 1008.2 1007.3 0.0
26/12:30pm 35.1 34.0 15.4 30 12.4 ENE 15 24 8 13 1008.5 1007.6 0.0
26/12:00pm 35.1 34.8 15.4 30 12.4 ENE 11 20 6 11 1008.8 1007.9 0.0
26/11:30am 35.2 35.1 17.0 34 11.7 ENE 13 26 7 14 1009.2 1008.3 0.0
26/11:00am 33.8 33.8 17.1 37 10.7 E 13 19 7 10 1009.5 1008.6 0.0
26/10:30am 33.1 33.7 17.7 40 9.9 E 11 19 6 10 1009.8 1008.9 0.0
26/10:00am 32.0 31.9 17.8 42 9.2 ESE 15 26 8 14 1009.9 1009.0 0.0
26/09:30am 31.7 31.1 17.6 43 9.1 SE 17 24 9 13 1009.8 1008.9 0.0
26/09:00am 31.0 31.3 18.0 45 8.4 SSE 13 20 7 11 1009.9 1009.0 11.0
26/08:30am 30.4 31.2 19.1 50 7.4 SSE 13 19 7 10 1010.0 1009.1 11.0
26/08:00am 30.4 31.2 19.1 50 7.4 S 13 19 7 10 1009.9 1009.0 11.0
26/07:30am 28.9 29.5 19.5 57 6.1 S 15 24 8 13 1009.4 1008.5 11.0
26/07:00am 27.1 29.0 19.7 64 4.8 SSW 9 17 5 9 1009.2 1008.3 11.0
26/06:30am 26.7 28.5 19.6 65 4.6 SSW 9 13 5 7 1008.9 1008.0 11.0
26/06:00am 26.6 27.9 19.2 64 4.8 SSW 11 17 6 9 1008.5 1007.6 11.0
26/05:30am 26.7 27.6 19.3 64 4.8 SSW 13 19 7 10 1008.4 1007.5 11.0
26/05:00am 26.6 27.9 19.2 64 4.8 SSW 11 17 6 9 1008.1 1007.2 11.0
26/04:30am 26.6 28.1 19.7 66 4.5 SSW 11 19 6 10 1007.7 1006.8 11.0
26/04:00am 26.4 28.3 19.8 67 4.3 SSW 9 13 5 7 1007.6 1006.7 11.0
26/03:30am 26.5 28.5 19.9 67 4.3 SSW 9 17 5 9 1007.7 1006.8 11.0
26/03:00am 26.6 27.6 20.2 68 4.2 SSW 15 20 8 11 1007.8 1006.9 11.0
26/02:30am 26.0 27.8 20.3 71 3.7 S 11 17 6 9 1007.9 1007.0 11.0
26/02:00am 25.7 27.9 20.5 73 3.4 S 9 15 5 8 1008.4 1007.5 11.0
26/01:30am 25.7 27.9 20.5 73 3.4 SSW 9 13 5 7 1008.4 1007.5 11.0
26/01:00am 25.4 28.3 21.7 80 2.5 S 9 13 5 7 1008.9 1008.0 11.0
26/12:30am 25.3 27.9 22.0 82 2.2 S 11 17 6 9 1009.1 1008.2 11.0
26/12:00am 25.2 28.7 22.9 87 1.6 S 9 13 5 7 1009.1 1008.2 11.0
 
Date/Time
EST
Temp
°C
App
Temp
°C
Dew
Point
Rel
Hum
%
Delta-T
°C
Wind Press
QNH
hPa
Press
MSL
hPa
Rain
since 9 am
mm
Dir
 
Spd
km/h
Gust
km/h
Spd
kts
Gust
kts
25/11:30pm 24.9 30.0 22.6 87 1.6 CALM 0 0 0 0 1009.1 1008.2 11.0
25/11:00pm 24.9 28.4 22.2 85 1.8 N 7 9 4 5 1009.2 1008.3 11.0
25/10:30pm 25.2 28.3 22.1 83 2.1 SSW 9 11 5 6 1009.4 1008.5 11.0
25/10:00pm 24.5 27.0 21.8 85 1.8 NW 11 15 6 8 1009.2 1008.3 10.8
25/09:30pm 24.0 26.5 21.7 87 1.5 W 11 15 6 8 1010.0 1009.1 10.6
25/09:00pm 23.1 26.0 21.0 88 1.4 SW 7 11 4 6 1010.3 1009.4 9.0
25/08:30pm 22.7 24.5 20.4 87 1.5 S 11 15 6 8 1010.4 1009.5 8.2
25/08:00pm 22.6 23.4 19.8 84 1.8 S 15 24 8 13 1010.9 1010.0 7.0
25/07:30pm 23.2 21.6 19.1 78 2.6 SE 26 37 14 20 1010.2 1009.3 4.6
25/07:04pm 26.0 24.8 20.8 73 3.4 SE 28 50 15 27 1009.9 1009.0 3.4
25/07:00pm 26.3 26.6 20.8 71 3.6 E 20 26 11 14 1009.6 1008.7 3.4
25/06:30pm 27.5 25.9 20.1 64 4.9 ENE 28 46 15 25 1008.6 1007.7 3.4
25/06:15pm 30.2 27.8 18.3 49 7.7 NE 28 52 15 28 1008.5 1007.6 3.4
25/06:00pm 33.2 34.4 20.0 45 8.8 N 13 17 7 9 1006.8 1005.8 3.4
25/05:30pm 33.5 34.3 20.6 46 8.7 NNW 17 22 9 12 1006.2 1005.2 3.4
25/05:00pm 31.3 33.2 22.0 57 6.3 NNW 15 20 8 11 1006.0 1005.0 3.4
25/04:30pm 28.6 28.5 21.4 65 4.8 NW 24 35 13 19 1006.2 1005.2 1.8
25/04:18pm 30.7 30.1 20.6 54 6.7 N 24 30 13 16 1006.4 1005.4 0.4
25/04:00pm 36.7 35.1 18.3 34 12.1 NW 24 33 13 18 1006.0 1005.0 0.0
25/03:30pm 36.7 36.7 17.3 31 12.6 N 13 20 7 11 1006.1 1005.1 0.0
25/03:00pm 36.6 37.7 16.7 30 12.8 SSE 6 9 3 5 1006.6 1005.6 0.0
25/02:30pm 36.2 36.5 16.9 32 12.4 ENE 11 20 6 11 1007.1 1006.1 0.0
25/02:00pm 37.2 38.4 18.2 32 12.5 N 9 15 5 8 1007.6 1006.7 0.0
25/01:30pm 36.1 35.9 17.7 33 12.0 ENE 15 26 8 14 1008.5 1007.6 0.0
25/01:00pm 35.4 36.9 18.0 35 11.4 NE 7 19 4 10 1009.0 1008.1 0.0
25/12:30pm 35.5 36.3 18.1 35 11.4 NW 11 20 6 11 1009.7 1008.8 0.0
25/12:00pm 36.1 37.1 17.7 33 12.0 NE 9 17 5 9 1010.3 1009.4 0.0
25/11:30am 35.4 35.7 18.0 35 11.4 NNE 13 17 7 9 1010.6 1009.7 0.0
25/11:00am 33.2 33.8 17.8 40 10.0 NE 11 20 6 11 1010.9 1010.0 0.0
25/10:30am 32.6 32.8 17.6 40 9.7 NNE 13 17 7 9 1011.2 1010.3 0.0
25/10:00am 31.5 31.9 18.1 44 8.7 NNW 13 19 7 10 1011.6 1010.7 0.0
25/09:30am 31.1 32.2 18.1 46 8.4 NNE 9 19 5 10 1011.8 1010.8 0.0
25/09:00am 30.3 31.6 19.3 51 7.2 NNE 11 17 6 9 1011.9 1010.9 0.4
25/08:30am 30.0 31.5 19.7 54 6.8 NE 11 17 6 9 1011.5 1010.6 0.4
25/08:00am 28.9 31.8 21.1 62 5.2 ENE 7 9 4 5 1011.0 1010.1 0.4
25/07:30am 26.9 30.7 22.7 78 2.9 ENE 7 11 4 6 1011.0 1010.1 0.4
25/07:00am 26.0 30.8 22.9 83 2.1 SE 2 7 1 4 1010.3 1009.4 0.4
25/06:30am 25.2 30.4 22.9 87 1.6 CALM 0 0 0 0 1009.6 1008.7 0.4
25/06:00am 24.9 29.8 22.4 86 1.7 CALM 0 0 0 0 1009.0 1008.1 0.4
25/05:30am 24.9 28.7 22.4 86 1.7 N 6 9 3 5 1008.5 1007.6 0.4
25/05:00am 24.8 29.7 22.3 86 1.7 CALM 0 0 0 0 1008.5 1007.6 0.4
25/04:30am 24.9 28.6 22.2 85 1.8 NW 6 7 3 4 1008.2 1007.3 0.4
25/04:00am 24.6 28.5 21.9 85 1.8 NW 4 6 2 3 1008.2 1007.3 0.4
25/03:30am 24.5 28.4 21.8 85 1.8 WSW 4 7 2 4 1007.9 1007.0 0.4
25/03:00am 24.9 29.2 22.0 84 1.9 SE 2 7 1 4 1008.3 1007.4 0.4
25/02:30am 25.0 28.5 21.9 83 2.1 ENE 6 9 3 5 1008.7 1007.8 0.4
25/02:00am 25.0 28.3 21.9 83 2.1 S 7 11 4 6 1008.5 1007.6 0.4
25/01:30am 25.4 28.4 21.9 81 2.3 S 9 13 5 7 1008.5 1007.6 0.4
25/01:00am 25.6 29.1 21.9 80 2.5 E 6 11 3 6 1008.9 1008.0 0.4
25/12:30am 25.9 29.2 21.8 78 2.7 NW 7 13 4 7 1009.0 1008.1 0.4
25/12:00am 26.3 29.3 21.9 77 3.0 N 9 13 5 7 1009.9 1009.0 0.4
 
Date/Time
EST
Temp
°C
App
Temp
°C
Dew
Point
Rel
Hum
%
Delta-T
°C
Wind Press
QNH
hPa
Press
MSL
hPa
Rain
since 9 am
mm
Dir
 
Spd
km/h
Gust
km/h
Spd
kts
Gust
kts
24/11:30pm 26.2 30.7 21.6 76 3.1 CALM 0 6 0 3 1010.3 1009.4 0.4
24/11:00pm 26.0 29.2 21.2 75 3.2 ENE 6 9 3 5 1010.6 1009.7 0.4
24/10:30pm 26.5 28.6 21.7 75 3.2 ENE 13 20 7 11 1011.2 1010.3 0.4
24/10:00pm 26.4 29.8 22.0 77 3.0 ESE 7 13 4 7 1011.0 1010.1 0.4
24/09:30pm 26.7 30.5 22.8 79 2.7 NE 7 11 4 6 1011.1 1010.2 0.4
24/09:00pm 27.0 30.9 23.0 79 2.7 NNE 7 11 4 6 1010.5 1009.6 0.4
24/08:30pm 26.8 31.1 22.6 78 2.9 W 4 9 2 5 1010.0 1009.1 0.4
24/08:00pm 26.7 31.2 23.0 80 2.5 WNW 4 9 2 5 1009.6 1008.7 0.4
24/07:30pm 26.1 28.8 22.2 79 2.6 W 11 17 6 9 1009.3 1008.4 0.4

Other Formats:

Comma delimited format used in spreadsheet applications
http://www.bom.gov.au/fwo/IDQ60801/IDQ60801.94261.axf

JavaScript Object Notation format (JSON) in row-major order
http://www.bom.gov.au/fwo/IDQ60801/IDQ60801.94261.json